createdAt,value
2023-01-29T00:00:01.538Z,26.53
2023-01-29T00:02:28.277Z,27.27
2023-01-29T00:04:58.676Z,27.20
2023-01-29T00:07:25.100Z,26.37
2023-01-29T00:09:51.204Z,26.47
2023-01-29T00:12:17.404Z,27.10
2023-01-29T00:14:43.524Z,28.00
2023-01-29T00:17:09.713Z,28.30
2023-01-29T00:19:36.517Z,28.03
2023-01-29T00:22:02.921Z,27.40
2023-01-29T00:24:29.227Z,27.63
2023-01-29T00:26:55.480Z,28.60
2023-01-29T00:29:21.599Z,27.77
2023-01-29T00:31:47.777Z,27.53
2023-01-29T00:34:14.004Z,28.03
2023-01-29T00:36:43.394Z,28.53
2023-01-29T00:39:10.007Z,27.67
2023-01-29T00:41:55.026Z,27.87
2023-01-29T00:44:39.907Z,27.70
2023-01-29T00:47:27.431Z,28.80
2023-01-29T00:49:53.553Z,26.33
2023-01-29T00:52:23.380Z,28.27
2023-01-29T00:54:49.744Z,27.63
2023-01-29T00:57:15.852Z,28.73
2023-01-29T00:59:42.077Z,27.53
2023-01-29T01:02:26.875Z,28.23
2023-01-29T01:04:53.034Z,27.97
2023-01-29T01:07:20.056Z,29.20
2023-01-29T01:10:04.318Z,28.23
2023-01-29T01:12:30.839Z,28.27
2023-01-29T01:14:57.153Z,28.13
2023-01-29T01:17:23.571Z,28.80
2023-01-29T01:19:49.804Z,27.00
2023-01-29T01:22:16.297Z,29.97
2023-01-29T01:24:43.045Z,28.33
2023-01-29T01:27:09.149Z,27.43
2023-01-29T01:29:35.650Z,27.53
2023-01-29T01:32:01.929Z,27.30
2023-01-29T01:34:28.573Z,25.87
2023-01-29T01:36:55.528Z,27.57
2023-01-29T01:39:21.802Z,24.97
2023-01-29T01:41:48.596Z,26.80
2023-01-29T01:44:50.725Z,28.57
2023-01-29T01:47:17.589Z,26.33
2023-01-29T01:49:43.992Z,26.60
2023-01-29T01:52:10.975Z,27.40
2023-01-29T01:54:37.096Z,28.03
2023-01-29T01:57:08.632Z,28.73
2023-01-29T01:59:35.980Z,27.87
2023-01-29T02:02:20.722Z,28.40
2023-01-29T02:05:05.892Z,28.80
2023-01-29T02:07:50.246Z,27.33
2023-01-29T02:10:17.128Z,26.87
2023-01-29T02:12:44.731Z,27.13
2023-01-29T02:15:12.140Z,27.60
2023-01-29T02:17:38.394Z,26.77
2023-01-29T02:20:10.053Z,29.40
2023-01-29T02:22:55.737Z,27.23
2023-01-29T02:25:42.377Z,28.47
2023-01-29T02:28:21.382Z,28.63
2023-01-29T02:30:54.371Z,27.53
2023-01-29T02:33:26.064Z,29.50
2023-01-29T02:35:57.182Z,27.80
2023-01-29T02:38:28.576Z,27.77
2023-01-29T02:40:57.066Z,28.27
2023-01-29T02:43:30.407Z,27.13
2023-01-29T02:46:02.096Z,28.80
2023-01-29T02:48:37.340Z,28.10
2023-01-29T02:51:05.652Z,28.20
2023-01-29T02:53:36.856Z,28.30
2023-01-29T02:56:07.345Z,27.93
2023-01-29T02:58:38.246Z,27.40
2023-01-29T03:01:06.320Z,26.53
2023-01-29T03:03:36.113Z,28.37
2023-01-29T03:06:05.786Z,29.50
2023-01-29T03:08:42.116Z,28.07
2023-01-29T03:11:12.975Z,28.87
2023-01-29T03:13:43.280Z,28.63
2023-01-29T03:16:15.714Z,28.23
2023-01-29T03:18:45.627Z,28.57
2023-01-29T03:21:29.381Z,26.40
2023-01-29T03:24:15.282Z,26.47
2023-01-29T03:27:00.933Z,27.07
2023-01-29T03:29:47.153Z,27.30
2023-01-29T03:32:16.059Z,25.97
2023-01-29T03:34:48.508Z,26.83
2023-01-29T03:37:18.896Z,27.50
2023-01-29T03:39:45.168Z,27.83
2023-01-29T03:42:18.914Z,27.00
2023-01-29T03:44:52.853Z,26.37
2023-01-29T03:47:21.701Z,26.67
2023-01-29T03:49:55.984Z,27.07
2023-01-29T03:52:26.033Z,27.57
2023-01-29T03:55:00.017Z,26.27
2023-01-29T03:57:31.717Z,26.70
2023-01-29T04:00:03.928Z,26.03
2023-01-29T04:02:31.630Z,26.03
2023-01-29T04:05:01.560Z,26.43
2023-01-29T04:07:28.882Z,26.77
2023-01-29T04:09:57.959Z,25.67
2023-01-29T04:12:26.520Z,27.67
2023-01-29T04:14:53.928Z,26.47
2023-01-29T04:17:23.548Z,26.83
2023-01-29T04:19:49.752Z,25.33
2023-01-29T04:22:19.329Z,25.27
2023-01-29T04:24:47.068Z,26.67
2023-01-29T04:27:22.489Z,24.90
2023-01-29T04:30:00.294Z,25.87
2023-01-29T04:32:31.799Z,26.27
2023-01-29T04:35:00.824Z,25.83
2023-01-29T04:37:35.227Z,25.77
2023-01-29T04:40:08.298Z,25.63
2023-01-29T04:42:40.394Z,24.83
2023-01-29T04:45:10.620Z,25.83
2023-01-29T04:47:44.736Z,25.20
2023-01-29T04:50:14.874Z,25.10
2023-01-29T04:52:47.356Z,26.07
2023-01-29T04:55:18.069Z,25.43
2023-01-29T04:57:49.703Z,25.17
2023-01-29T05:00:18.949Z,25.37
2023-01-29T05:02:46.843Z,26.53
2023-01-29T05:05:14.333Z,25.30
2023-01-29T05:07:42.584Z,25.27
2023-01-29T05:10:10.740Z,26.67
2023-01-29T05:12:37.860Z,26.00
2023-01-29T05:15:09.311Z,27.47
2023-01-29T05:17:35.476Z,25.23
2023-01-29T05:20:02.776Z,26.87
2023-01-29T05:22:29.385Z,25.57
2023-01-29T05:24:55.549Z,25.40
2023-01-29T05:27:43.538Z,26.13
2023-01-29T05:30:10.623Z,25.93
2023-01-29T05:32:36.966Z,26.37
2023-01-29T05:35:04.349Z,25.53
2023-01-29T05:37:30.470Z,25.40
2023-01-29T05:39:56.575Z,26.27
2023-01-29T05:42:23.270Z,24.67
2023-01-29T05:44:49.495Z,25.90
2023-01-29T05:47:18.738Z,26.27
2023-01-29T05:49:44.950Z,26.00
2023-01-29T05:52:11.689Z,26.10
2023-01-29T05:54:37.803Z,25.70
2023-01-29T05:57:03.901Z,26.13
2023-01-29T05:59:30.549Z,26.00
2023-01-29T06:01:56.774Z,25.50
2023-01-29T06:04:22.935Z,26.33
2023-01-29T06:06:49.042Z,25.23
2023-01-29T06:09:15.869Z,25.67
2023-01-29T06:11:41.973Z,25.87
2023-01-29T06:14:08.090Z,26.47
2023-01-29T06:16:34.262Z,25.20
2023-01-29T06:19:00.400Z,25.07
2023-01-29T06:21:26.538Z,24.83
2023-01-29T06:23:53.009Z,25.57
2023-01-29T06:26:19.773Z,25.87
2023-01-29T06:28:48.460Z,26.47
2023-01-29T06:31:27.453Z,25.63
2023-01-29T06:34:00.953Z,25.13
2023-01-29T06:36:27.051Z,25.20
2023-01-29T06:38:53.133Z,25.87
2023-01-29T06:41:21.961Z,27.33
2023-01-29T06:43:48.087Z,26.20
2023-01-29T06:46:14.356Z,25.93
2023-01-29T06:48:40.503Z,27.57
2023-01-29T06:51:08.633Z,27.97
2023-01-29T06:53:35.564Z,26.83
2023-01-29T06:56:01.939Z,27.03
2023-01-29T06:58:28.741Z,25.87
2023-01-29T07:01:01.745Z,26.27
2023-01-29T07:03:28.037Z,26.37
2023-01-29T07:05:54.150Z,27.10
2023-01-29T07:08:21.916Z,26.47
2023-01-29T07:10:48.176Z,25.73
2023-01-29T07:13:14.424Z,28.43
2023-01-29T07:15:41.223Z,26.53
2023-01-29T07:18:11.740Z,27.20
2023-01-29T07:20:38.913Z,26.97
2023-01-29T07:23:05.411Z,27.83
2023-01-29T07:25:32.854Z,29.30
2023-01-29T07:28:00.975Z,30.00
2023-01-29T07:30:27.326Z,29.10
2023-01-29T07:32:54.080Z,29.70
2023-01-29T07:35:20.234Z,27.07
2023-01-29T07:37:48.622Z,28.47
2023-01-29T07:40:15.289Z,28.47
2023-01-29T07:42:43.189Z,28.60
2023-01-29T07:45:10.688Z,29.97
2023-01-29T07:47:36.890Z,29.03
2023-01-29T07:50:04.491Z,27.93
2023-01-29T07:52:31.397Z,27.20
2023-01-29T07:54:57.502Z,25.57
2023-01-29T07:57:23.602Z,28.90
2023-01-29T07:59:49.704Z,27.87
2023-01-29T08:02:15.872Z,29.13
2023-01-29T08:04:42.052Z,25.70
2023-01-29T08:07:08.890Z,29.13
2023-01-29T08:09:35.412Z,28.13
2023-01-29T08:12:01.732Z,28.13
2023-01-29T08:14:28.148Z,28.17
2023-01-29T08:16:54.254Z,27.37
2023-01-29T08:19:20.373Z,27.87
2023-01-29T08:21:46.552Z,27.20
2023-01-29T08:24:13.507Z,26.03
2023-01-29T08:26:39.616Z,26.27
2023-01-29T08:29:05.796Z,27.07
2023-01-29T08:31:32.631Z,27.30
2023-01-29T08:33:58.935Z,27.63
2023-01-29T08:36:25.159Z,26.43
2023-01-29T08:38:51.268Z,27.83
2023-01-29T08:41:18.021Z,27.17
2023-01-29T08:43:44.355Z,27.17
2023-01-29T08:46:10.456Z,26.53
2023-01-29T08:48:36.625Z,25.80
2023-01-29T08:51:03.713Z,26.47
2023-01-29T08:53:29.868Z,26.13
2023-01-29T08:55:56.024Z,26.90
2023-01-29T08:58:22.861Z,27.23
2023-01-29T09:00:49.097Z,27.53
2023-01-29T09:03:15.380Z,28.07
2023-01-29T09:05:41.743Z,26.50
2023-01-29T09:08:08.690Z,26.90
2023-01-29T09:10:35.055Z,26.73
2023-01-29T09:13:01.226Z,26.23
2023-01-29T09:15:28.295Z,25.70
2023-01-29T09:17:54.459Z,28.07
2023-01-29T09:20:20.954Z,27.90
2023-01-29T09:22:47.252Z,27.00
2023-01-29T09:25:13.526Z,27.30
2023-01-29T09:27:40.176Z,26.57
2023-01-29T09:30:07.258Z,27.27
2023-01-29T09:35:20.736Z,27.70
2023-01-29T09:37:47.258Z,26.67
2023-01-29T09:40:20.686Z,25.83
2023-01-29T09:42:50.301Z,26.50
2023-01-29T09:45:21.180Z,27.00
2023-01-29T09:47:48.059Z,27.80
2023-01-29T09:50:20.001Z,27.30
2023-01-29T09:52:49.860Z,26.53
2023-01-29T09:55:21.883Z,26.90
2023-01-29T09:57:50.261Z,27.10
2023-01-29T10:00:20.295Z,27.67
2023-01-29T10:02:59.932Z,26.57
2023-01-29T10:05:41.016Z,27.27
2023-01-29T10:08:24.085Z,25.87
2023-01-29T10:10:50.809Z,27.37
2023-01-29T10:13:26.685Z,27.10
2023-01-29T10:16:02.907Z,26.73
2023-01-29T10:19:05.621Z,26.60
2023-01-29T10:21:45.262Z,27.03
2023-01-29T10:24:19.524Z,26.97
2023-01-29T10:26:45.882Z,27.87
2023-01-29T10:29:16.194Z,26.13
2023-01-29T10:31:42.715Z,24.63
2023-01-29T10:34:13.365Z,25.83
2023-01-29T10:36:42.289Z,25.57
2023-01-29T10:39:14.754Z,26.03
2023-01-29T10:41:48.646Z,26.27
2023-01-29T10:44:23.224Z,26.87
2023-01-29T10:47:00.553Z,29.03
2023-01-29T10:49:41.272Z,22.57
2023-01-29T10:52:17.292Z,28.30
2023-01-29T10:54:53.733Z,27.77
2023-01-29T10:57:34.435Z,28.30
2023-01-29T11:00:10.132Z,25.97
2023-01-29T11:02:36.271Z,28.77
2023-01-29T11:05:03.275Z,31.07
2023-01-29T11:07:31.340Z,26.73
2023-01-29T11:10:02.890Z,27.10
2023-01-29T11:12:29.939Z,26.07
2023-01-29T11:14:59.810Z,27.60
2023-01-29T11:17:25.962Z,26.67
2023-01-29T11:19:54.806Z,26.00
2023-01-29T11:22:22.935Z,26.27
2023-01-29T11:25:09.327Z,26.97
2023-01-29T11:27:40.762Z,26.57
2023-01-29T11:30:15.696Z,27.13
2023-01-29T11:32:42.131Z,27.47
2023-01-29T11:35:20.709Z,25.80
2023-01-29T11:37:47.658Z,27.63
2023-01-29T11:40:35.967Z,28.07
2023-01-29T11:43:12.692Z,28.20
2023-01-29T11:45:39.556Z,27.77
2023-01-29T11:48:13.058Z,27.43
2023-01-29T11:50:39.186Z,27.87
2023-01-29T11:53:06.915Z,29.00
2023-01-29T11:55:49.784Z,27.80
2023-01-29T11:58:18.186Z,27.73
2023-01-29T12:00:47.751Z,28.67
2023-01-29T12:03:16.059Z,28.07
2023-01-29T12:05:53.279Z,26.90
2023-01-29T12:08:22.621Z,27.37
2023-01-29T12:10:49.061Z,27.00
2023-01-29T12:13:24.896Z,27.13
2023-01-29T12:16:06.593Z,27.27
2023-01-29T12:18:36.789Z,28.17
2023-01-29T12:21:04.106Z,27.70
2023-01-29T12:23:35.828Z,26.87
2023-01-29T12:26:05.786Z,27.23
2023-01-29T12:28:40.833Z,28.07
2023-01-29T12:31:17.158Z,27.33
2023-01-29T12:33:48.740Z,26.17
2023-01-29T12:36:19.249Z,29.83
2023-01-29T12:38:45.992Z,28.93
2023-01-29T12:41:24.955Z,28.23
2023-01-29T12:43:54.362Z,27.30
2023-01-29T12:46:23.308Z,27.97
2023-01-29T12:48:50.364Z,27.10
2023-01-29T12:51:19.541Z,28.40
2023-01-29T12:53:50.258Z,29.20
2023-01-29T12:56:20.759Z,29.23
2023-01-29T12:58:49.376Z,28.77
2023-01-29T13:01:18.022Z,28.20
2023-01-29T13:03:50.472Z,28.90
2023-01-29T13:06:18.664Z,28.77
2023-01-29T13:08:46.264Z,29.03
2023-01-29T13:11:18.228Z,28.87
2023-01-29T13:13:53.859Z,27.00
2023-01-29T13:16:23.312Z,29.00
2023-01-29T13:18:53.097Z,28.13
2023-01-29T13:21:21.790Z,28.47
2023-01-29T13:23:50.506Z,28.33
2023-01-29T13:26:20.970Z,29.60
2023-01-29T13:28:47.964Z,29.43
2023-01-29T13:31:23.443Z,28.67
2023-01-29T13:33:53.686Z,27.87
2023-01-29T13:36:24.747Z,27.63
2023-01-29T13:38:55.535Z,27.73
2023-01-29T13:41:31.807Z,27.37
2023-01-29T13:43:57.941Z,26.23
2023-01-29T13:46:24.134Z,26.83
2023-01-29T13:48:53.746Z,26.53
2023-01-29T13:51:21.540Z,27.27
2023-01-29T13:53:53.616Z,27.60
2023-01-29T13:56:42.549Z,26.40
2023-01-29T13:59:21.156Z,26.77
2023-01-29T14:02:17.399Z,25.30
2023-01-29T14:04:43.517Z,26.77
2023-01-29T14:07:48.317Z,26.63
2023-01-29T14:10:16.542Z,24.90
2023-01-29T14:12:47.668Z,28.13
2023-01-29T14:15:28.103Z,26.37
2023-01-29T14:18:10.222Z,25.17
2023-01-29T14:20:45.571Z,25.70
2023-01-29T14:23:22.463Z,26.83
2023-01-29T14:25:48.667Z,25.03
2023-01-29T14:28:19.971Z,28.03
2023-01-29T14:30:47.713Z,26.53
2023-01-29T14:33:32.274Z,26.47
2023-01-29T14:35:58.757Z,25.13
2023-01-29T14:38:26.066Z,25.53
2023-01-29T14:41:02.993Z,26.23
2023-01-29T14:43:29.813Z,24.27
2023-01-29T14:46:34.505Z,26.00
2023-01-29T14:49:01.162Z,24.37
2023-01-29T14:51:32.122Z,25.17
2023-01-29T14:54:01.193Z,24.37
2023-01-29T14:56:32.466Z,26.33
2023-01-29T14:59:11.210Z,24.37
2023-01-29T15:01:39.192Z,26.33
2023-01-29T15:04:13.020Z,23.50
2023-01-29T15:06:43.329Z,25.80
2023-01-29T15:09:13.158Z,24.50
2023-01-29T15:11:47.161Z,24.73
2023-01-29T15:14:22.983Z,22.87
2023-01-29T15:16:59.062Z,22.37
2023-01-29T15:19:27.907Z,23.80
2023-01-29T15:22:05.255Z,23.83
2023-01-29T15:24:31.385Z,23.33
2023-01-29T15:26:57.626Z,23.37
2023-01-29T15:29:26.248Z,22.90
2023-01-29T15:31:52.914Z,23.37
2023-01-29T15:34:19.305Z,23.83
2023-01-29T15:36:47.090Z,22.53
2023-01-29T15:39:16.913Z,22.17
2023-01-29T15:41:43.294Z,22.60
2023-01-29T15:44:13.441Z,21.57
2023-01-29T15:46:41.393Z,22.87
2023-01-29T15:49:09.347Z,21.40
2023-01-29T15:51:35.629Z,20.57
2023-01-29T15:54:03.691Z,21.47
2023-01-29T15:56:33.477Z,20.67
2023-01-29T15:59:03.948Z,20.63
2023-01-29T16:01:31.084Z,20.10
2023-01-29T16:04:01.565Z,20.63
2023-01-29T16:06:28.843Z,17.50
2023-01-29T16:08:55.208Z,17.60
2023-01-29T16:11:21.474Z,17.13
2023-01-29T16:13:48.702Z,16.00
2023-01-29T16:16:20.551Z,16.50
2023-01-29T16:18:59.492Z,15.93
2023-01-29T16:21:29.804Z,16.23
2023-01-29T16:23:58.825Z,15.07
2023-01-29T16:26:26.459Z,15.63
2023-01-29T16:28:52.645Z,16.57
2023-01-29T16:31:23.777Z,14.40
2023-01-29T16:33:50.169Z,16.43
2023-01-29T16:36:18.351Z,16.63
2023-01-29T16:38:47.268Z,17.60
2023-01-29T16:41:15.299Z,16.77
2023-01-29T16:43:50.964Z,16.27
2023-01-29T16:46:23.949Z,16.93
2023-01-29T16:48:50.646Z,16.53
2023-01-29T16:51:22.307Z,17.80
2023-01-29T16:54:00.349Z,17.83
2023-01-29T16:56:29.336Z,16.57
2023-01-29T16:58:55.652Z,17.73
2023-01-29T17:01:22.947Z,17.30
2023-01-29T17:03:55.960Z,17.50
2023-01-29T17:06:24.388Z,16.77
2023-01-29T17:08:51.058Z,17.23
2023-01-29T17:11:26.224Z,16.87
2023-01-29T17:13:54.853Z,17.30
2023-01-29T17:16:23.947Z,17.20
2023-01-29T17:18:50.415Z,16.70
2023-01-29T17:21:16.531Z,18.27
2023-01-29T17:23:42.642Z,18.07
2023-01-29T17:26:12.364Z,16.80
2023-01-29T17:28:39.591Z,18.03
2023-01-29T17:31:07.301Z,16.90
2023-01-29T17:33:34.293Z,17.10
2023-01-29T17:36:00.654Z,18.63
2023-01-29T17:38:27.014Z,18.17
2023-01-29T17:40:55.995Z,17.40
2023-01-29T17:43:22.218Z,17.93
2023-01-29T17:45:49.017Z,18.57
2023-01-29T17:48:19.329Z,17.57
2023-01-29T17:50:47.770Z,18.30
2023-01-29T17:53:14.276Z,19.53
2023-01-29T17:55:40.422Z,17.87
2023-01-29T17:58:08.165Z,16.93
2023-01-29T18:00:35.001Z,17.97
2023-01-29T18:03:02.295Z,18.37
2023-01-29T18:05:28.999Z,18.00
2023-01-29T18:07:55.176Z,18.53
2023-01-29T18:10:22.141Z,18.57
2023-01-29T18:12:48.283Z,17.67
2023-01-29T18:15:14.838Z,17.50
2023-01-29T18:17:41.665Z,16.60
2023-01-29T18:20:19.996Z,16.90
2023-01-29T18:22:46.841Z,16.60
2023-01-29T18:25:15.152Z,17.77
2023-01-29T18:27:41.681Z,17.17
2023-01-29T18:30:09.351Z,16.90
2023-01-29T18:32:35.505Z,15.87
2023-01-29T18:35:01.759Z,16.47
2023-01-29T18:37:28.844Z,16.83
2023-01-29T18:39:54.976Z,19.43
2023-01-29T18:42:21.138Z,19.17
2023-01-29T18:44:47.239Z,17.23
2023-01-29T18:47:13.347Z,15.03
2023-01-29T18:49:39.864Z,15.83
2023-01-29T18:52:06.533Z,16.83
2023-01-29T18:54:33.472Z,17.97
2023-01-29T18:57:13.695Z,15.77
2023-01-29T18:59:44.432Z,17.10
2023-01-29T19:02:13.412Z,16.17
2023-01-29T19:04:39.536Z,15.90
2023-01-29T19:07:05.864Z,17.97
2023-01-29T19:09:32.825Z,17.60
2023-01-29T19:11:58.907Z,16.57
2023-01-29T19:14:25.048Z,16.50
2023-01-29T19:16:51.230Z,15.80
2023-01-29T19:19:17.367Z,15.37
2023-01-29T19:21:43.580Z,16.33
2023-01-29T19:24:11.017Z,16.73
2023-01-29T19:26:37.792Z,16.23
2023-01-29T19:29:03.970Z,15.90
2023-01-29T19:31:31.071Z,16.60
2023-01-29T19:33:57.712Z,15.20
2023-01-29T19:36:24.033Z,15.87
2023-01-29T19:38:50.363Z,15.57
2023-01-29T19:41:16.503Z,16.03
2023-01-29T19:43:44.992Z,16.43
2023-01-29T19:46:11.214Z,15.23
2023-01-29T19:48:37.700Z,16.33
2023-01-29T19:51:07.577Z,15.53
2023-01-29T19:53:34.555Z,15.00
2023-01-29T19:56:02.534Z,15.53
2023-01-29T19:58:29.207Z,16.17
2023-01-29T20:00:56.914Z,14.73
2023-01-29T20:03:23.405Z,15.90
2023-01-29T20:05:49.547Z,16.33
2023-01-29T20:08:15.820Z,16.27
2023-01-29T20:10:45.153Z,17.53
2023-01-29T20:13:11.422Z,18.80
2023-01-29T20:15:37.582Z,18.50
2023-01-29T20:18:11.023Z,18.63
2023-01-29T20:20:39.647Z,18.10
2023-01-29T20:23:05.751Z,17.40
2023-01-29T20:25:32.138Z,17.63
2023-01-29T20:27:58.310Z,17.33
2023-01-29T20:30:24.450Z,17.53
2023-01-29T20:32:50.607Z,17.93
2023-01-29T20:35:17.499Z,18.73
2023-01-29T20:37:44.372Z,17.97
2023-01-29T20:40:11.662Z,17.67
2023-01-29T20:42:37.882Z,17.67
2023-01-29T20:45:04.980Z,17.40
2023-01-29T20:47:31.457Z,17.13
2023-01-29T20:49:57.597Z,18.60
2023-01-29T20:52:24.774Z,17.77
2023-01-29T20:54:50.961Z,18.07
2023-01-29T20:57:17.114Z,17.40
2023-01-29T20:59:44.302Z,17.60
2023-01-29T21:02:10.705Z,17.93
2023-01-29T21:04:36.854Z,16.93
2023-01-29T21:07:02.971Z,16.77
2023-01-29T21:09:29.778Z,17.57
2023-01-29T21:11:56.019Z,16.67
2023-01-29T21:14:22.140Z,17.80
2023-01-29T21:16:48.330Z,16.27
2023-01-29T21:19:14.718Z,16.77
2023-01-29T21:21:40.828Z,17.57
2023-01-29T21:24:08.506Z,17.53
2023-01-29T21:26:37.339Z,16.53
2023-01-29T21:29:03.589Z,16.73
2023-01-29T21:31:29.881Z,17.33
2023-01-29T21:33:56.117Z,16.03
2023-01-29T21:36:22.265Z,17.13
2023-01-29T21:38:48.439Z,16.97
2023-01-29T21:41:14.689Z,15.80
2023-01-29T21:43:41.196Z,17.80
2023-01-29T21:46:10.749Z,16.80
2023-01-29T21:48:37.754Z,17.13
2023-01-29T21:51:04.455Z,16.13
2023-01-29T21:53:30.604Z,17.13
2023-01-29T21:55:59.043Z,17.13
2023-01-29T21:58:25.219Z,16.90
2023-01-29T22:00:52.013Z,15.83
2023-01-29T22:03:18.271Z,15.90
2023-01-29T22:05:44.391Z,15.37
2023-01-29T22:08:10.504Z,16.10
2023-01-29T22:10:37.139Z,15.27
2023-01-29T22:13:03.478Z,16.93
2023-01-29T22:15:29.600Z,16.67
2023-01-29T22:17:56.531Z,15.23
2023-01-29T22:20:28.798Z,16.40
2023-01-29T22:22:55.986Z,16.57
2023-01-29T22:25:22.297Z,16.00
2023-01-29T22:27:48.439Z,16.73
2023-01-29T22:30:15.179Z,16.30
2023-01-29T22:32:41.578Z,15.40
2023-01-29T22:35:09.588Z,16.57
2023-01-29T22:37:35.684Z,15.93
2023-01-29T22:40:01.856Z,15.97
2023-01-29T22:42:27.999Z,16.87
2023-01-29T22:44:54.193Z,16.20
2023-01-29T22:47:20.334Z,16.63
2023-01-29T22:49:48.408Z,16.70
2023-01-29T22:52:15.201Z,16.87
2023-01-29T22:54:42.315Z,16.07
2023-01-29T22:57:10.023Z,16.83
2023-01-29T22:59:36.431Z,16.90
2023-01-29T23:02:02.610Z,17.33
2023-01-29T23:04:28.781Z,17.83
2023-01-29T23:06:54.910Z,17.93
2023-01-29T23:09:21.711Z,18.50
2023-01-29T23:11:47.877Z,17.63
2023-01-29T23:14:14.075Z,17.17
2023-01-29T23:16:40.250Z,17.17
2023-01-29T23:19:06.524Z,18.33
2023-01-29T23:21:32.694Z,18.13
2023-01-29T23:23:59.776Z,18.67
2023-01-29T23:26:45.158Z,17.57
2023-01-29T23:29:11.842Z,18.43
2023-01-29T23:31:38.090Z,18.63
2023-01-29T23:34:04.274Z,18.43
2023-01-29T23:36:30.539Z,18.93
2023-01-29T23:38:56.684Z,18.40
2023-01-29T23:41:22.952Z,17.90
2023-01-29T23:43:49.837Z,18.07
2023-01-29T23:46:15.959Z,17.43
2023-01-29T23:48:42.107Z,17.87
2023-01-29T23:51:08.273Z,17.63
2023-01-29T23:53:34.381Z,16.80
2023-01-29T23:56:01.574Z,18.23
2023-01-29T23:58:28.395Z,16.13
